Columbus, Ohio
Traffic Map
Current Weather Conditions
Columbus, Ohio
Few Clouds
Few Clouds
22°
Feels Like: 16°
Wind Chill: 16° Ceiling: Unl
Heat Index: 22° Visibility: 10mi
Dew Point: 17° Wind: 5mph
Humidity: 82% Direction: 300° (WNW)
Pressure: 30.35in Gusts: 0mph
Raw Report DataKCMH 281051Z 30004KT 10SM FEW035 M06/M08 A3035 RMK AO2 SLP289 T10561083
Traffic Incident Summary
Active as of:
Severity:
Category:
InformationThere was an issue retrieving the traffic information for this location. Please try a different location or try again shortly.
Advertisements
Track Severe Weather on mobile